Creedmoor, Texas
Current Conditions -  °F | °C
As of 9:15 PM on Thursday 18 Dec 2014 (Local Time) from KHYI Reporting Station
Overcast Overcast  
Wind Chill: 55°   Ceiling: 300
Heat Index: 55°   Visibility: 3mi
Dew Point: 52°   Wind: 13mph
Humidity: 88%   Direction: 30°NNE
Pressure: 30.07"   Gusts: NA
Location:  30.0694°N, 97.8797°W
Report Text: KHYI 190315Z 03011KT 3SM OVC003 13/11 A3007 RMK AO1 LTG DSNT SE
Loading
Personal Weather Stations






























Interactive Weather Map New forecast layout! Learn more

10-Day Weather Forecast

Advertisements
Track Severe Weather on mobile